Edna T. Gattle — WDD2528 — position and weather

sailwx.info

Track history (hours):
 
Tides and Currents Weather Stations Pressure Air Temp Water Temp Dewpoint Dewpoint Depression Visibility Wind Speed Wind Dir Waves Ship Positions

Edna T. Gattle

Owner: Terral RiverService, Inc., Lake Providence, LA. More information available from US FCC via Universal Licensing System and Coast Guard Vessel Documentation Center.

Last reported at 2017-May-16 19:52 UTC. Time now 2017-May-22 23:07 UTC.
Position N 29°56' W 093°03'.

Length 33 m; draft 2.8 m.

Type: Towing. MMSI: 367116420.

Date/timePositionNaut miles runAvg speedWind from/ knotsBaromVisibWave heightAir tempDewpointWater temp
2017-May-16 19:52N 29°56' W 093°03'1 4.0
2017-May-16 19:29N 29°56' W 093°05'2 4.0
2017-May-16 18:59N 29°56' W 093°07'2 4.2
2017-May-16 18:30N 29°56' W 093°10'2 4.5
2017-May-16 18:00N 29°58' W 093°11'2 4.5
2017-May-16 17:30N 29°60' W 093°13'2 4.0
2017-May-16 17:00N 30°01' W 093°14'2 4.1
2017-May-16 16:30N 30°03' W 093°16'2 4.5
2017-May-16 16:00N 30°05' W 093°17'2 3.1
2017-May-16 15:30N 30°06' W 093°18'1 2.1
2017-May-16 15:00N 30°06' W 093°19'1 1.1
2017-May-16 14:30N 30°05' W 093°20'0 0.0
2017-May-16 13:30N 30°05' W 093°20'0 0.0
2017-May-16 13:00N 30°05' W 093°20'1 2.7
2017-May-16 12:30N 30°04' W 093°21'0 0.8
2017-May-16 12:00N 30°04' W 093°20'3 6.1
2017-May-16 11:30N 30°07' W 093°20'3 6.8
2017-May-16 11:00N 30°11' W 093°19'4 7.3
2017-May-16 10:30N 30°13' W 093°16'1 2.4
2017-May-16 10:00N 30°14' W 093°15'0 0.0
2017-May-16 09:30N 30°14' W 093°15'0 0.0
2017-May-16 09:00N 30°14' W 093°15'0 0.0
2017-May-16 08:29N 30°14' W 093°15'0 0.0
2017-May-16 08:00N 30°14' W 093°15'0 0.0
2017-May-16 07:30N 30°14' W 093°15'0 0.0
2017-May-16 07:00N 30°14' W 093°15'0 0.1
2017-May-16 06:30N 30°14' W 093°15'0 0.1
2017-May-16 06:00N 30°14' W 093°15'1 2.3
2017-May-16 05:30N 30°13' W 093°16'3 6.9
2017-May-16 05:00N 30°11' W 093°19'3 6.4
2017-May-16 04:30N 30°08' W 093°20'2 3.9
2017-May-16 04:00N 30°06' W 093°19'0 0.8
2017-May-16 03:30N 30°06' W 093°18'0 0.1
2017-May-16 03:00N 30°06' W 093°18'2 4.3
2017-May-16 02:30N 30°04' W 093°16'2 3.7
2017-May-16 02:00N 30°06' W 093°18'1 3.0
2017-May-16 01:30N 30°05' W 093°17'0 0.8
2017-May-16 01:00N 30°04' W 093°16'0 0.8
2017-May-16 00:30N 30°04' W 093°16'2 3.5
2017-May-16 00:00N 30°02' W 093°16'2 4.5
2017-May-15 23:30N 30°01' W 093°14'2 4.9
2017-May-15 23:00N 29°59' W 093°12'3 5.2
2017-May-15 22:30N 29°57' W 093°10'2 4.7
2017-May-15 22:00N 29°56' W 093°08'3 5.0
2017-May-15 21:30N 29°56' W 093°05'  
Track history (hours):
 
Tides and Currents Weather Stations Pressure Air Temp Water Temp Dewpoint Dewpoint Depression Visibility Wind Speed Wind Dir Waves Ship Positions

Edna T. Gattle

Owner: Terral RiverService, Inc., Lake Providence, LA. More information available from US FCC via Universal Licensing System and Coast Guard Vessel Documentation Center.

Last reported at 2017-May-16 19:52 UTC. Time now 2017-May-22 23:07 UTC.
Position N 29°56' W 093°03'.

Length 33 m; draft 2.8 m.

Type: Towing. MMSI: 367116420.

Date/timePositionNaut miles runAvg speedWind from/ knotsBaromVisibWave heightAir tempDewpointWater temp
2017-May-16 19:52N 29°56' W 093°03'1 4.0
2017-May-16 19:29N 29°56' W 093°05'2 4.0
2017-May-16 18:59N 29°56' W 093°07'2 4.2
2017-May-16 18:30N 29°56' W 093°10'2 4.5
2017-May-16 18:00N 29°58' W 093°11'2 4.5
2017-May-16 17:30N 29°60' W 093°13'2 4.0
2017-May-16 17:00N 30°01' W 093°14'2 4.1
2017-May-16 16:30N 30°03' W 093°16'2 4.5
2017-May-16 16:00N 30°05' W 093°17'2 3.1
2017-May-16 15:30N 30°06' W 093°18'1 2.1
2017-May-16 15:00N 30°06' W 093°19'1 1.1
2017-May-16 14:30N 30°05' W 093°20'0 0.0
2017-May-16 13:30N 30°05' W 093°20'0 0.0
2017-May-16 13:00N 30°05' W 093°20'1 2.7
2017-May-16 12:30N 30°04' W 093°21'0 0.8
2017-May-16 12:00N 30°04' W 093°20'3 6.1
2017-May-16 11:30N 30°07' W 093°20'3 6.8
2017-May-16 11:00N 30°11' W 093°19'4 7.3
2017-May-16 10:30N 30°13' W 093°16'1 2.4
2017-May-16 10:00N 30°14' W 093°15'0 0.0
2017-May-16 09:30N 30°14' W 093°15'0 0.0
2017-May-16 09:00N 30°14' W 093°15'0 0.0
2017-May-16 08:29N 30°14' W 093°15'0 0.0
2017-May-16 08:00N 30°14' W 093°15'0 0.0
2017-May-16 07:30N 30°14' W 093°15'0 0.0
2017-May-16 07:00N 30°14' W 093°15'0 0.1
2017-May-16 06:30N 30°14' W 093°15'0 0.1
2017-May-16 06:00N 30°14' W 093°15'1 2.3
2017-May-16 05:30N 30°13' W 093°16'3 6.9
2017-May-16 05:00N 30°11' W 093°19'3 6.4
2017-May-16 04:30N 30°08' W 093°20'2 3.9
2017-May-16 04:00N 30°06' W 093°19'0 0.8
2017-May-16 03:30N 30°06' W 093°18'0 0.1
2017-May-16 03:00N 30°06' W 093°18'2 4.3
2017-May-16 02:30N 30°04' W 093°16'2 3.7
2017-May-16 02:00N 30°06' W 093°18'1 3.0
2017-May-16 01:30N 30°05' W 093°17'0 0.8
2017-May-16 01:00N 30°04' W 093°16'0 0.8
2017-May-16 00:30N 30°04' W 093°16'2 3.5
2017-May-16 00:00N 30°02' W 093°16'2 4.5
2017-May-15 23:30N 30°01' W 093°14'2 4.9
2017-May-15 23:00N 29°59' W 093°12'3 5.2
2017-May-15 22:30N 29°57' W 093°10'2 4.7
2017-May-15 22:00N 29°56' W 093°08'3 5.0
2017-May-15 21:30N 29°56' W 093°05'  

Dump ship's entire track history